LFBU/ANG METAR and TAF weather

Enter ICAO airport designator
Station Type Date Time Source
LFBU METAR 2022/11/27 09:30 UTC NOAA

LFBU 270930Z AUTO 13008KT 060V170 CAVOK 08/04 Q1020 NOSIG


Station Type Date Time Source
LFBU Decoded METAR 2022/11/27 09:30 UTC NOAA

Station name not available
Nov 27, 2022 - 04:30 AM EST / 2022.11.27 0930 UTC
Wind: from the SE (130 degrees) at 9 MPH (8 KT) (direction variable):0
Visibility: greater than 7 mile(s):0
Temperature: 46 F (8 C)
Dew Point: 39 F (4 C)
Relative Humidity: 75%
Pressure (altimeter): 30.12 in. Hg (1020 hPa)
ob: LFBU 270930Z AUTO 13008KT 060V170 CAVOK 08/04 Q1020 NOSIG
cycle: 9

Station Type Date Time Source
LFBU TAF 2022/11/27 06:00 UTC NOAA

TAF LFBU 270500Z 2706/2806 15008KT CAVOK
TEMPO 2720/2722 3000 BR SCT005
TEMPO 2722/2804 3000 RA BKN005 BKN040TCU

Example: see airport list